Time;durP1;ratioP1;P1;durP2;ratioP2;P2;SDS_P1;SDS_P2;PMS_P1;PMS_P2;Temp;Humidity;BMP_temperature;BMP_pressure;BME280_temperature;BME280_humidity;BME280_pressure;Samples;Min_cycle;Max_cycle;Signal;HPM_P1;HPM_P2
2022/03/22 00:02:27;;;;;;;97.00;48.70;;;;;;;-1.16;60.65;102076.22;215012;1271;142547;-71
2022/03/22 00:07:31;;;;;;;97.70;47.80;;;;;;;-1.22;60.60;102079.59;214723;1273;140668;-70
2022/03/22 00:12:49;;;;;;;89.90;44.80;;;;;;;-1.27;60.77;102080.61;215119;1274;142325;-68
2022/03/22 00:18:11;;;;;;;110.00;49.10;;;;;;;-1.30;60.97;102087.13;215565;1274;141935;-70
2022/03/22 00:23:19;;;;;;;108.80;54.40;;;;;;;-1.34;61.16;102084.41;216349;1274;140598;-73
2022/03/22 00:28:23;;;;;;;102.20;46.90;;;;;;;-1.37;61.20;102085.27;215544;1274;141677;-70
2022/03/22 00:33:28;;;;;;;99.40;46.70;;;;;;;-1.38;61.34;102083.10;215096;1274;140193;-70
2022/03/22 00:38:32;;;;;;;99.70;47.60;;;;;;;-1.45;61.07;102083.70;215415;1273;139973;-70
2022/03/22 00:43:37;;;;;;;85.70;45.90;;;;;;;-1.52;61.11;102083.31;214737;1272;139944;-74
2022/03/22 00:48:41;;;;;;;85.80;43.50;;;;;;;-1.54;61.39;102082.08;214696;1274;140405;-66
2022/03/22 00:53:48;;;;;;;92.40;44.00;;;;;;;-1.57;61.32;102077.38;214427;1273;139889;-71
2022/03/22 01:00:01;;;;;;;79.40;40.70;;;;;;;-1.65;61.42;102074.58;215345;1274;141153;-71
2022/03/22 01:10:32;;;;;;;96.20;43.20;;;;;;;-1.82;62.02;102063.84;213504;1274;140917;-70
2022/03/22 01:15:39;;;;;;;97.90;47.00;;;;;;;-1.88;62.26;102062.46;214062;1274;142446;-70
2022/03/22 01:20:49;;;;;;;93.80;45.50;;;;;;;-1.92;62.56;102060.43;214489;1274;141634;-72
2022/03/22 01:25:54;;;;;;;83.40;42.30;;;;;;;-1.94;62.94;102056.27;213163;1274;140955;-71
2022/03/22 01:31:00;;;;;;;91.50;46.20;;;;;;;-1.96;63.23;102058.95;214028;1274;140603;-64
2022/03/22 01:36:04;;;;;;;72.70;40.10;;;;;;;-1.96;63.38;102056.69;213532;1274;141310;-67
2022/03/22 01:41:09;;;;;;;81.70;44.40;;;;;;;-2.05;62.94;102060.55;214338;1274;141103;-71
2022/03/22 01:46:14;;;;;;;68.10;38.30;;;;;;;-2.13;63.14;102063.66;213917;1273;140813;-68
2022/03/22 01:51:23;;;;;;;81.00;40.40;;;;;;;-2.12;63.43;102062.72;214337;1273;139916;-69
2022/03/22 01:56:28;;;;;;;70.30;38.40;;;;;;;-2.07;63.79;102060.14;214091;1274;141200;-67
2022/03/22 02:06:58;;;;;;;67.90;35.40;;;;;;;-2.11;63.87;102059.17;214192;1274;141855;-65
2022/03/22 02:12:04;;;;;;;83.40;37.80;;;;;;;-2.18;63.69;102058.59;216083;1273;162715;-72
2022/03/22 02:17:09;;;;;;;80.20;39.80;;;;;;;-2.27;63.91;102059.84;216083;1274;161525;-71
2022/03/22 02:22:17;;;;;;;79.00;41.30;;;;;;;-2.32;63.99;102055.13;216090;1274;140764;-71
2022/03/22 02:27:25;;;;;;;71.20;34.70;;;;;;;-2.32;64.07;102055.16;216066;1274;141764;-70
2022/03/22 02:32:30;;;;;;;65.20;34.00;;;;;;;-2.33;64.20;102060.27;216058;1274;140959;-68
2022/03/22 02:37:34;;;;;;;72.20;35.80;;;;;;;-2.37;64.25;102054.36;215227;1274;140643;-69
2022/03/22 02:42:50;;;;;;;69.40;36.90;;;;;;;-2.47;64.12;102051.66;215093;1274;139999;-69
2022/03/22 02:47:54;;;;;;;85.10;41.80;;;;;;;-2.52;64.42;102046.46;215609;1274;140640;-71
2022/03/22 02:53:00;;;;;;;72.50;36.90;;;;;;;-2.56;64.36;102052.63;214453;1274;140132;-69
2022/03/22 02:58:05;;;;;;;81.40;35.50;;;;;;;-2.64;64.22;102049.95;214355;1274;141363;-71
2022/03/22 03:03:09;;;;;;;83.90;42.60;;;;;;;-2.70;64.49;102048.96;215206;1274;141276;-75
2022/03/22 03:08:16;;;;;;;75.00;40.80;;;;;;;-2.68;64.69;102049.35;214373;1274;141002;-67
2022/03/22 03:13:21;;;;;;;77.30;39.00;;;;;;;-2.70;64.71;102054.34;215000;1274;140085;-70
2022/03/22 03:18:25;;;;;;;74.40;38.20;;;;;;;-2.69;64.87;102052.33;213260;1274;141319;-70
2022/03/22 03:23:29;;;;;;;73.60;39.90;;;;;;;-2.77;64.97;102056.65;214552;1274;140394;-71
2022/03/22 03:28:33;;;;;;;66.90;34.80;;;;;;;-2.85;65.18;102059.77;214579;1274;141824;-66
2022/03/22 03:33:38;;;;;;;78.70;36.40;;;;;;;-2.88;65.27;102062.41;214582;1273;142922;-68
2022/03/22 03:38:43;;;;;;;70.50;36.40;;;;;;;-2.91;65.53;102066.05;215135;1273;141486;-69
2022/03/22 03:43:47;;;;;;;65.90;35.90;;;;;;;-2.95;65.60;102061.58;214622;1274;140178;-68
2022/03/22 03:48:52;;;;;;;68.00;35.60;;;;;;;-2.99;65.51;102059.77;214685;1274;139895;-66
2022/03/22 03:53:57;;;;;;;76.00;38.00;;;;;;;-3.04;65.68;102065.56;215384;1274;141223;-68
2022/03/22 03:59:02;;;;;;;89.90;48.20;;;;;;;-3.05;65.89;102066.70;214586;1275;141054;-69
2022/03/22 04:04:05;;;;;;;85.60;41.60;;;;;;;-3.01;65.64;102065.11;214263;1274;141031;-68
2022/03/22 04:09:09;;;;;;;84.60;43.50;;;;;;;-2.95;65.83;102070.61;213423;1274;141614;-69
2022/03/22 04:14:14;;;;;;;99.10;46.70;;;;;;;-2.92;65.72;102071.67;215611;1274;139546;-73
2022/03/22 04:19:20;;;;;;;75.30;40.70;;;;;;;-2.95;65.87;102072.36;215385;1275;139634;-72
2022/03/22 04:24:24;;;;;;;86.10;37.80;;;;;;;-3.01;65.85;102075.35;216260;1274;140172;-73
2022/03/22 04:34:52;;;;;;;75.40;38.00;;;;;;;-3.03;65.95;102074.94;215840;1276;141169;-70
2022/03/22 04:39:57;;;;;;;73.50;34.60;;;;;;;-3.06;66.24;102075.95;214430;1274;141648;-67
2022/03/22 04:45:04;;;;;;;72.20;37.20;;;;;;;-3.10;66.06;102076.38;215623;1274;140474;-69
2022/03/22 04:50:08;;;;;;;57.30;33.80;;;;;;;-3.13;66.35;102081.27;215646;1274;140725;-72
2022/03/22 05:00:36;;;;;;;65.00;33.70;;;;;;;-3.07;66.70;102080.71;213299;1274;140777;-71
2022/03/22 05:11:05;;;;;;;98.80;42.50;;;;;;;-2.88;67.00;102081.52;214007;1274;141136;-67
2022/03/22 05:16:10;;;;;;;85.10;43.80;;;;;;;-2.77;67.14;102086.05;213882;1274;141817;-67
2022/03/22 05:21:14;;;;;;;85.30;40.00;;;;;;;-2.66;66.90;102089.58;215000;1274;141757;-68
2022/03/22 05:26:20;;;;;;;79.80;37.60;;;;;;;-2.57;66.87;102089.20;213555;1274;142863;-66
2022/03/22 05:31:24;;;;;;;86.60;45.30;;;;;;;-2.45;67.28;102083.81;213669;1274;141914;-70
2022/03/22 05:36:29;;;;;;;110.80;51.60;;;;;;;-2.29;67.56;102090.12;213565;1274;140913;-67
2022/03/22 05:41:33;;;;;;;176.40;75.80;;;;;;;-2.12;67.50;102086.07;213488;1273;140889;-66
2022/03/22 05:46:38;;;;;;;348.90;152.90;;;;;;;-1.93;67.48;102090.31;215035;1274;150792;-68
2022/03/22 05:51:43;;;;;;;99.70;46.30;;;;;;;-1.75;67.20;102085.14;215316;1274;141373;-68
2022/03/22 05:56:47;;;;;;;99.70;46.90;;;;;;;-1.59;67.43;102089.56;214872;1274;140696;-67
2022/03/22 06:01:51;;;;;;;175.80;72.30;;;;;;;-1.39;67.59;102095.69;215043;1274;141297;-68
2022/03/22 06:06:56;;;;;;;154.40;70.90;;;;;;;-1.15;67.53;102096.05;214746;1274;140321;-70
2022/03/22 06:12:01;;;;;;;422.80;183.50;;;;;;;-0.84;67.12;102094.66;215337;1274;140963;-66
2022/03/22 06:17:06;;;;;;;133.40;60.90;;;;;;;-0.49;67.11;102095.71;216199;1274;140833;-70
2022/03/22 06:22:10;;;;;;;104.80;50.50;;;;;;;-0.10;66.86;102097.07;216383;1273;140476;-70
2022/03/22 06:27:17;;;;;;;107.70;51.50;;;;;;;0.26;66.87;102091.64;216335;1274;140332;-70
2022/03/22 06:32:22;;;;;;;120.40;51.70;;;;;;;0.60;65.93;102091.77;216085;1274;141636;-68
2022/03/22 06:37:25;;;;;;;76.30;35.20;;;;;;;0.93;65.81;102093.72;216243;1273;140500;-68
2022/03/22 06:42:30;;;;;;;54.10;30.20;;;;;;;1.26;65.76;102092.79;216210;1274;141059;-71
2022/03/22 06:47:34;;;;;;;46.70;25.10;;;;;;;1.57;65.49;102090.21;216111;1273;140680;-69
2022/03/22 06:52:39;;;;;;;32.90;17.30;;;;;;;1.88;65.02;102091.24;213617;1274;142295;-67
2022/03/22 06:57:43;;;;;;;33.20;17.70;;;;;;;2.31;64.75;102087.50;214443;1274;140273;-65
2022/03/22 07:02:49;;;;;;;29.70;18.10;;;;;;;2.98;64.66;102084.16;214464;1274;139971;-65
2022/03/22 07:07:54;;;;;;;23.40;14.00;;;;;;;3.67;63.75;102077.79;213658;1275;140275;-68
2022/03/22 07:13:01;;;;;;;36.30;18.10;;;;;;;4.42;62.77;102077.14;214052;1274;139817;-68
2022/03/22 07:18:08;;;;;;;40.00;20.00;;;;;;;5.62;61.50;102079.86;213829;1274;140357;-69
2022/03/22 07:23:13;;;;;;;34.20;17.70;;;;;;;7.26;60.29;102078.85;214564;1274;140190;-70
2022/03/22 07:28:17;;;;;;;31.60;18.40;;;;;;;9.09;58.34;102077.68;213496;1274;140325;-69
2022/03/22 07:33:23;;;;;;;33.40;18.50;;;;;;;10.90;55.00;102075.70;212949;1274;140060;-69
2022/03/22 07:38:27;;;;;;;28.00;20.90;;;;;;;12.25;51.88;102070.78;213710;1274;140600;-68
2022/03/22 07:43:32;;;;;;;33.30;20.60;;;;;;;13.10;49.91;102070.16;213883;1273;140112;-67
2022/03/22 07:48:37;;;;;;;32.40;21.00;;;;;;;13.80;48.88;102071.64;214241;1274;140660;-69
2022/03/22 07:53:43;;;;;;;32.80;19.10;;;;;;;14.16;46.96;102070.10;213742;1274;140134;-69
2022/03/22 07:58:48;;;;;;;33.70;19.30;;;;;;;14.58;45.96;102069.77;214856;1274;140418;-69
2022/03/22 08:03:52;;;;;;;27.00;19.90;;;;;;;14.82;44.46;102071.89;213632;1274;140867;-69
2022/03/22 08:08:57;;;;;;;27.00;17.40;;;;;;;14.68;42.64;102071.09;214486;1274;140133;-70
2022/03/22 08:14:02;;;;;;;25.20;13.90;;;;;;;14.49;42.36;102071.32;214473;1274;139807;-69
2022/03/22 08:19:07;;;;;;;39.20;21.30;;;;;;;14.49;41.89;102069.95;213404;1274;140840;-66
2022/03/22 08:24:12;;;;;;;29.70;18.80;;;;;;;14.50;41.17;102070.16;215528;1274;140505;-70
2022/03/22 08:29:17;;;;;;;35.20;19.00;;;;;;;14.43;40.48;102071.67;214144;1274;140190;-72
2022/03/22 08:34:20;;;;;;;34.00;17.90;;;;;;;14.51;40.12;102070.91;216332;1274;140279;-71
2022/03/22 08:39:24;;;;;;;33.60;18.30;;;;;;;14.71;39.71;102068.00;216076;1274;140790;-72
2022/03/22 08:44:28;;;;;;;26.20;18.00;;;;;;;14.85;39.06;102059.10;215926;1274;140302;-70
2022/03/22 08:49:32;;;;;;;25.40;17.70;;;;;;;14.96;39.08;102062.81;216166;1273;140476;-70
2022/03/22 08:54:40;;;;;;;29.50;18.50;;;;;;;15.12;38.74;102060.08;213894;1275;140214;-69
2022/03/22 08:59:46;;;;;;;19.60;14.00;;;;;;;15.19;38.00;102053.87;214433;1274;140950;-71
2022/03/22 09:10:15;;;;;;;25.80;17.40;;;;;;;15.17;37.33;102048.17;214931;1274;141964;-71
2022/03/22 09:15:20;;;;;;;25.00;17.50;;;;;;;15.24;37.27;102045.64;214536;1274;141439;-71
2022/03/22 09:20:25;;;;;;;30.20;17.30;;;;;;;15.36;36.78;102044.90;214612;1274;143806;-71
2022/03/22 09:25:30;;;;;;;20.20;14.30;;;;;;;15.41;36.61;102037.13;214618;1274;141530;-69
2022/03/22 09:30:38;;;;;;;25.80;15.10;;;;;;;15.49;36.26;102033.80;214232;1272;141658;-66
2022/03/22 09:35:43;;;;;;;16.70;13.70;;;;;;;15.63;36.03;102024.72;214093;1277;236965;-69
2022/03/22 09:40:53;;;;;;;21.20;13.80;;;;;;;15.76;35.47;102017.10;213516;1277;141631;-70
2022/03/22 09:45:58;;;;;;;20.70;13.50;;;;;;;15.81;35.24;102014.39;214279;1274;141554;-72
2022/03/22 09:56:31;;;;;;;20.80;14.70;;;;;;;15.96;34.08;102007.82;213408;1274;708657;-71
2022/03/22 10:01:36;;;;;;;17.00;13.00;;;;;;;15.91;33.60;102005.15;213527;1274;141161;-71
2022/03/22 10:06:54;;;;;;;25.60;16.30;;;;;;;16.00;33.74;102000.27;215242;1274;141473;-72
2022/03/22 10:11:59;;;;;;;20.30;14.90;;;;;;;16.28;34.22;101991.60;215329;1274;140651;-71
2022/03/22 10:17:20;;;;;;;21.70;15.90;;;;;;;16.51;33.61;101994.08;214828;1274;139965;-69
2022/03/22 10:22:29;;;;;;;22.90;18.80;;;;;;;16.60;33.35;101987.30;215578;1272;140562;-72
2022/03/22 10:27:37;;;;;;;21.80;15.30;;;;;;;16.69;33.22;101985.45;213796;1274;140911;-70
2022/03/22 10:33:01;;;;;;;;;;;;;;;16.67;32.74;101982.10;215060;1274;141238;-71
2022/03/22 10:38:09;;;;;;;20.80;14.40;;;;;;;16.76;33.10;101976.47;216059;1274;128805;-72
2022/03/22 10:43:26;;;;;;;22.50;13.50;;;;;;;16.80;32.17;101974.77;215204;1274;140557;-71
2022/03/22 10:48:34;;;;;;;16.70;12.10;;;;;;;16.84;32.03;101971.62;216177;1274;141225;-72
2022/03/22 10:53:40;;;;;;;21.30;13.50;;;;;;;16.84;31.94;101970.16;216102;1274;141591;-72
2022/03/22 10:58:45;;;;;;;16.60;10.90;;;;;;;17.01;32.10;101959.69;215250;1273;140046;-71
2022/03/22 11:03:57;;;;;;;15.20;11.20;;;;;;;17.13;32.01;101953.83;215151;1274;140279;-72
2022/03/22 11:09:02;;;;;;;18.10;12.00;;;;;;;17.27;31.87;101952.94;214738;1274;139914;-70
2022/03/22 11:14:13;;;;;;;19.10;12.20;;;;;;;17.42;31.71;101946.11;213767;1274;140859;-71
2022/03/22 11:19:18;;;;;;;11.50;9.30;;;;;;;17.54;31.42;101942.89;214921;1274;140941;-71
2022/03/22 11:24:25;;;;;;;16.30;11.40;;;;;;;17.69;31.36;101939.58;214289;1273;139497;-70
2022/03/22 11:29:32;;;;;;;18.20;11.30;;;;;;;17.78;31.04;101930.34;213353;1274;140220;-70
2022/03/22 11:34:39;;;;;;;21.40;10.90;;;;;;;17.76;30.47;101922.09;215162;1274;140858;-71
2022/03/22 11:45:15;;;;;;;18.30;11.40;;;;;;;17.89;30.70;101910.20;213668;1274;142301;-71
2022/03/22 11:50:21;;;;;;;17.40;12.50;;;;;;;17.92;30.49;101902.06;213662;1274;140927;-71
2022/03/22 11:55:27;;;;;;;;;;;;;;;17.96;30.22;101900.02;214034;1274;139842;-71
2022/03/22 12:00:56;;;;;;;14.60;11.40;;;;;;;17.92;30.12;101893.55;214362;1274;126729;-72
2022/03/22 12:06:12;;;;;;;14.20;11.40;;;;;;;17.99;30.34;101890.62;213545;1274;140098;-72
2022/03/22 12:11:17;;;;;;;18.70;11.20;;;;;;;18.14;30.35;101885.47;214458;1274;140052;-69
2022/03/22 12:16:27;;;;;;;11.10;9.00;;;;;;;18.16;29.96;101881.50;214340;1274;141310;-73
2022/03/22 12:21:31;;;;;;;17.90;12.90;;;;;;;18.08;29.96;101878.62;214659;1276;139842;-71
2022/03/22 12:26:36;;;;;;;20.30;14.60;;;;;;;18.16;29.80;101868.13;213150;1276;141099;-73
2022/03/22 12:31:51;;;;;;;20.40;13.40;;;;;;;18.09;29.94;101868.61;214825;1274;140874;-72
2022/03/22 12:36:55;;;;;;;18.90;14.00;;;;;;;18.05;29.53;101869.63;214758;1274;140796;-72
2022/03/22 12:42:00;;;;;;;17.50;12.20;;;;;;;17.91;29.70;101857.73;215167;1274;140198;-72
2022/03/22 12:47:06;;;;;;;13.80;10.60;;;;;;;17.89;29.60;101851.75;215725;1274;140907;-72
2022/03/22 12:52:11;;;;;;;15.90;12.20;;;;;;;17.81;29.36;101847.55;216055;1274;139776;-73
2022/03/22 12:57:16;;;;;;;20.00;12.50;;;;;;;17.73;29.50;101846.48;216089;1272;140868;-71
2022/03/22 13:02:22;;;;;;;20.20;12.60;;;;;;;17.67;29.07;101844.57;216060;1273;153661;-73
2022/03/22 13:07:29;;;;;;;14.20;10.60;;;;;;;17.62;29.21;101838.20;216318;1274;141434;-73
2022/03/22 13:12:35;;;;;;;16.80;11.20;;;;;;;17.74;29.19;101832.92;216354;1274;141152;-73
2022/03/22 13:17:48;;;;;;;16.20;9.50;;;;;;;17.86;29.03;101829.77;214954;1274;141892;-73
2022/03/22 13:22:53;;;;;;;19.00;11.20;;;;;;;17.87;28.84;101826.17;214490;1274;141060;-71
2022/03/22 13:28:00;;;;;;;16.20;9.30;;;;;;;17.87;28.88;101815.76;213317;1274;141901;-72
2022/03/22 13:33:06;;;;;;;13.70;8.70;;;;;;;17.97;29.17;101810.62;214949;1274;141460;-72
2022/03/22 13:38:13;;;;;;;12.20;9.40;;;;;;;17.94;29.01;101807.19;214178;1274;141144;-71
2022/03/22 13:43:18;;;;;;;16.20;9.90;;;;;;;17.84;28.75;101800.98;214080;1274;141177;-71
2022/03/22 13:48:22;;;;;;;14.70;10.50;;;;;;;17.72;28.73;101792.84;214619;1273;142284;-71
2022/03/22 13:53:34;;;;;;;20.20;11.00;;;;;;;17.70;28.68;101787.98;214271;1274;141372;-68
2022/03/22 13:58:42;;;;;;;13.40;9.80;;;;;;;17.64;28.97;101792.42;213787;1274;139527;-71
2022/03/22 14:03:48;;;;;;;16.10;11.00;;;;;;;17.59;28.45;101783.01;214431;1273;140672;-71
2022/03/22 14:08:56;;;;;;;14.50;10.80;;;;;;;17.50;28.73;101784.64;214361;1274;140703;-72
2022/03/22 14:14:01;;;;;;;17.20;10.00;;;;;;;17.50;28.79;101776.67;214515;1274;140656;-72
2022/03/22 14:19:10;;;;;;;13.80;10.40;;;;;;;17.48;28.96;101774.34;213991;1274;160266;-69
2022/03/22 14:24:27;;;;;;;17.40;12.00;;;;;;;17.44;29.03;101766.27;214405;1274;141287;-71
2022/03/22 14:29:32;;;;;;;13.70;11.60;;;;;;;17.37;28.99;101760.23;215050;1274;140257;-72
2022/03/22 14:40:00;;;;;;;20.20;11.90;;;;;;;17.22;28.97;101753.29;213807;1274;140963;-70
2022/03/22 14:45:08;;;;;;;19.80;11.20;;;;;;;17.15;29.19;101744.51;215322;1274;140509;-70
2022/03/22 14:50:12;;;;;;;21.00;11.80;;;;;;;17.10;29.22;101741.58;214112;1274;140286;-74
2022/03/22 14:55:18;;;;;;;18.90;11.50;;;;;;;17.04;29.17;101736.55;216190;1273;140441;-73
2022/03/22 15:00:23;;;;;;;15.10;11.80;;;;;;;16.96;29.32;101731.32;216038;1273;139938;-71
2022/03/22 15:05:41;;;;;;;17.40;10.80;;;;;;;16.89;29.64;101726.23;216269;1273;142595;-72
2022/03/22 15:10:45;;;;;;;15.50;11.50;;;;;;;16.84;29.43;101724.10;215979;1274;140794;-75
2022/03/22 15:15:49;;;;;;;19.00;13.70;;;;;;;16.74;29.67;101717.65;215684;1274;140341;-71
2022/03/22 15:20:53;;;;;;;17.00;11.30;;;;;;;16.66;29.73;101716.95;213471;1272;140828;-76
2022/03/22 15:25:58;;;;;;;18.40;11.30;;;;;;;16.56;29.91;101716.77;215567;1274;143277;-77
2022/03/22 15:31:04;;;;;;;17.10;11.70;;;;;;;16.46;30.15;101712.89;214569;1274;140338;-75
2022/03/22 15:36:09;;;;;;;16.70;10.80;;;;;;;16.37;29.96;101708.21;214098;1272;139854;-69
2022/03/22 15:41:14;;;;;;;20.10;12.50;;;;;;;16.31;30.08;101705.98;215181;1274;141395;-71
2022/03/22 15:46:18;;;;;;;23.30;13.00;;;;;;;16.24;30.34;101707.61;214790;1272;140940;-75
2022/03/22 15:51:22;;;;;;;24.50;12.20;;;;;;;16.17;30.38;101702.08;214869;1271;140299;-73
2022/03/22 15:56:29;;;;;;;20.40;12.10;;;;;;;16.08;30.61;101703.38;214292;1274;139750;-75
2022/03/22 16:01:33;;;;;;;16.50;12.10;;;;;;;15.95;30.58;101698.54;214296;1274;140019;-70
2022/03/22 16:06:38;;;;;;;18.10;12.80;;;;;;;15.82;30.88;101697.69;213746;1274;140827;-76
2022/03/22 16:11:44;;;;;;;18.30;11.70;;;;;;;15.67;31.19;101698.11;214525;1274;141026;-74
2022/03/22 16:16:51;;;;;;;18.00;12.70;;;;;;;15.48;31.29;101698.82;214306;1274;142165;-72
2022/03/22 16:22:00;;;;;;;17.50;11.10;;;;;;;15.26;31.30;101694.61;214504;1274;141951;-72
2022/03/22 16:27:09;;;;;;;16.60;12.30;;;;;;;15.00;31.53;101691.39;213609;1271;140037;-73
2022/03/22 16:37:53;;;;;;;17.40;11.10;;;;;;;14.29;32.28;101683.70;213746;1274;140246;-73
2022/03/22 16:43:02;;;;;;;17.00;11.00;;;;;;;13.93;32.67;101678.39;213286;1274;139877;-71
2022/03/22 16:48:13;;;;;;;21.50;11.20;;;;;;;13.63;33.01;101676.59;215627;1274;141782;-77
2022/03/22 16:53:21;;;;;;;13.90;9.20;;;;;;;13.33;33.40;101677.04;215160;1275;139817;-75
2022/03/22 16:58:28;;;;;;;13.30;10.30;;;;;;;13.01;33.75;101678.62;215255;1274;142028;-68
2022/03/22 17:03:41;;;;;;;16.20;10.30;;;;;;;12.64;34.41;101682.07;216020;1274;141395;-71
2022/03/22 17:08:47;;;;;;;15.80;10.60;;;;;;;12.26;35.21;101677.06;215216;1274;141480;-69
2022/03/22 17:13:55;;;;;;;20.40;10.40;;;;;;;11.87;35.92;101676.86;216072;1274;140726;-71
2022/03/22 17:19:07;;;;;;;24.10;10.90;;;;;;;11.49;36.77;101677.75;216114;1273;140210;-71
2022/03/22 17:24:14;;;;;;;37.90;22.40;;;;;;;11.09;37.52;101678.35;216011;1274;139937;-67
2022/03/22 17:29:32;;;;;;;50.40;26.50;;;;;;;10.77;38.09;101676.42;215369;1274;139990;-71
2022/03/22 17:34:41;;;;;;;43.00;27.00;;;;;;;10.54;38.93;101674.02;214662;1274;142040;-71
2022/03/22 17:39:49;;;;;;;86.80;40.20;;;;;;;10.23;39.32;101671.34;214426;1274;140713;-70
2022/03/22 17:45:06;;;;;;;62.90;33.30;;;;;;;9.92;40.05;101670.23;213995;1274;140606;-67
2022/03/22 17:50:16;;;;;;;57.00;30.80;;;;;;;9.65;41.02;101669.06;214592;1274;141031;-68
2022/03/22 17:55:24;;;;;;;39.60;19.20;;;;;;;9.37;41.43;101666.98;213353;1274;140750;-69
2022/03/22 18:00:34;;;;;;;36.20;18.20;;;;;;;9.10;42.11;101670.59;214472;1274;140345;-71
2022/03/22 18:05:49;;;;;;;34.50;20.50;;;;;;;8.75;42.42;101670.50;214527;1274;140179;-71
2022/03/22 18:11:42;;;;;;;59.40;29.80;;;;;;;8.45;42.88;101674.48;213972;1274;140154;-74
2022/03/22 18:16:18;;;;;;;45.80;23.90;;;;;;;8.23;43.43;101675.89;214421;1274;140125;-75
2022/03/22 18:21:41;;;;;;;47.70;22.90;;;;;;;7.98;44.09;101676.77;214044;1274;139413;-71
2022/03/22 18:26:46;;;;;;;44.20;24.20;;;;;;;7.76;44.47;101675.52;213910;1274;139659;-72
2022/03/22 18:31:50;;;;;;;73.30;33.00;;;;;;;7.47;45.00;101673.27;213482;1274;139773;-63
2022/03/22 18:36:54;;;;;;;74.10;32.40;;;;;;;7.22;45.53;101672.28;214294;1274;139735;-71
2022/03/22 18:42:02;;;;;;;87.00;39.60;;;;;;;7.02;46.01;101675.13;215039;1274;139562;-75
2022/03/22 18:47:08;;;;;;;68.10;32.70;;;;;;;6.82;46.37;101672.14;214962;1274;141456;-73
2022/03/22 18:52:15;;;;;;;48.10;27.40;;;;;;;6.59;46.76;101670.38;213127;1276;141456;-74
2022/03/22 18:57:40;;;;;;;56.50;29.80;;;;;;;6.25;47.39;101669.13;214074;1274;141133;-70
2022/03/22 19:02:44;;;;;;;77.70;35.20;;;;;;;6.09;48.56;101662.67;215159;1274;140135;-70
2022/03/22 19:07:49;;;;;;;98.00;50.50;;;;;;;5.88;48.80;101664.14;214678;1273;141697;-78
2022/03/22 19:12:53;;;;;;;99.80;50.20;;;;;;;5.67;49.16;101664.73;215521;1274;141253;-76
2022/03/22 19:17:58;;;;;;;118.10;60.80;;;;;;;5.54;49.30;101663.93;214140;1274;141541;-72
2022/03/22 19:23:02;;;;;;;124.00;63.80;;;;;;;5.41;49.48;101662.46;214790;1274;140357;-72
2022/03/22 19:28:09;;;;;;;129.30;66.20;;;;;;;5.17;50.02;101661.50;215935;1274;141221;-72
2022/03/22 19:33:17;;;;;;;135.80;67.00;;;;;;;4.84;50.51;101659.64;215548;1272;141099;-73
2022/03/22 19:38:23;;;;;;;88.20;47.00;;;;;;;4.69;51.10;101656.30;215400;1274;139809;-73
2022/03/22 19:43:28;;;;;;;74.00;39.20;;;;;;;4.65;51.59;101654.80;215795;1274;140032;-77
2022/03/22 19:48:33;;;;;;;90.40;46.60;;;;;;;4.43;51.74;101651.30;214513;1274;139484;-71
2022/03/22 19:53:38;;;;;;;111.50;51.70;;;;;;;4.08;52.09;101651.93;215184;1274;140268;-74
2022/03/22 19:58:45;;;;;;;135.30;71.00;;;;;;;3.80;52.59;101647.71;214340;1274;141538;-71
2022/03/22 20:03:50;;;;;;;152.60;66.70;;;;;;;3.76;53.33;101652.48;214303;1274;141237;-69
2022/03/22 20:09:16;;;;;;;126.90;65.10;;;;;;;3.70;53.32;101648.48;214633;1274;141242;-70
2022/03/22 20:14:21;;;;;;;103.20;54.30;;;;;;;3.60;54.01;101649.58;213784;1274;140696;-66
2022/03/22 20:19:25;;;;;;;101.80;48.70;;;;;;;3.37;53.89;101645.39;213756;1273;140963;-70
2022/03/22 20:24:30;;;;;;;89.60;46.80;;;;;;;3.16;54.64;101645.98;214062;1274;140719;-72
2022/03/22 20:29:37;;;;;;;86.00;44.60;;;;;;;2.99;54.81;101647.11;213334;1274;139783;-68
2022/03/22 20:34:45;;;;;;;98.20;49.40;;;;;;;2.96;55.47;101648.05;214497;1272;140304;-70
2022/03/22 20:39:50;;;;;;;136.40;62.40;;;;;;;2.96;55.88;101648.60;213742;1274;142061;-71
2022/03/22 20:44:54;;;;;;;125.50;57.00;;;;;;;2.91;56.30;101649.10;214554;1274;235917;-76
2022/03/22 20:50:00;;;;;;;116.40;66.00;;;;;;;2.76;56.17;101647.27;214055;1274;141489;-65
2022/03/22 20:55:08;;;;;;;101.80;52.10;;;;;;;2.62;56.55;101641.92;214618;1274;140724;-75
2022/03/22 21:00:13;;;;;;;100.30;50.70;;;;;;;2.40;56.91;101640.66;215014;1273;150151;-73
2022/03/22 21:05:24;;;;;;;111.20;60.40;;;;;;;2.20;57.48;101632.98;215152;1273;140026;-69
2022/03/22 21:10:29;;;;;;;122.00;61.80;;;;;;;2.07;57.50;101630.30;213892;1274;139753;-72
2022/03/22 21:15:33;;;;;;;110.20;54.20;;;;;;;1.96;57.71;101627.86;215500;1273;140580;-70
2022/03/22 21:20:38;;;;;;;101.30;49.70;;;;;;;1.89;58.35;101626.39;213565;1274;140463;-69
2022/03/22 21:25:43;;;;;;;111.60;50.40;;;;;;;1.78;58.12;101617.42;215731;1274;140745;-70
2022/03/22 21:30:47;;;;;;;92.10;45.30;;;;;;;1.62;58.65;101614.16;215652;1274;140613;-70
2022/03/22 21:35:52;;;;;;;93.50;45.90;;;;;;;1.44;58.85;101608.20;216130;1274;139620;-69
2022/03/22 21:40:58;;;;;;;95.50;51.90;;;;;;;1.36;59.08;101604.34;216026;1271;140174;-68
2022/03/22 21:46:03;;;;;;;106.90;52.00;;;;;;;1.30;59.55;101600.92;215779;1274;142769;-66
2022/03/22 21:51:07;;;;;;;91.00;53.00;;;;;;;1.27;59.48;101598.05;216153;1274;142095;-70
2022/03/22 21:56:12;;;;;;;82.40;39.80;;;;;;;1.26;59.41;101597.23;215396;1274;517319;-73
2022/03/22 22:01:19;;;;;;;92.10;50.00;;;;;;;1.26;59.87;101592.04;213828;1274;139894;-68
2022/03/22 22:06:25;;;;;;;136.30;60.50;;;;;;;1.24;60.02;101590.81;215653;1273;140408;-71
2022/03/22 22:11:29;;;;;;;153.90;73.00;;;;;;;1.24;60.32;101590.45;213465;1274;140265;-67
2022/03/22 22:16:34;;;;;;;149.10;69.90;;;;;;;1.22;60.61;101589.73;214360;1274;140561;-68
2022/03/22 22:21:38;;;;;;;113.90;58.30;;;;;;;1.14;60.70;101587.83;214332;1273;142053;-67
2022/03/22 22:26:43;;;;;;;90.00;47.70;;;;;;;0.96;60.52;101586.98;214198;1274;140670;-70
2022/03/22 22:37:10;;;;;;;103.40;50.30;;;;;;;0.45;60.77;101580.90;214833;1274;141099;-70
2022/03/22 22:42:15;;;;;;;121.40;60.10;;;;;;;0.31;61.53;101575.20;214401;1274;144257;-73
2022/03/22 22:47:24;;;;;;;156.10;72.90;;;;;;;0.29;62.43;101567.69;214538;1274;141945;-75
2022/03/22 22:52:29;;;;;;;136.20;63.50;;;;;;;0.28;62.60;101566.52;214402;1273;141430;-75
2022/03/22 22:57:37;;;;;;;138.50;64.00;;;;;;;0.30;62.49;101565.31;213437;1274;140952;-71
2022/03/22 23:02:41;;;;;;;133.80;62.40;;;;;;;0.32;62.42;101563.05;213776;1274;143279;-72
2022/03/22 23:13:10;;;;;;;142.00;62.10;;;;;;;0.27;62.39;101558.61;213645;1274;141134;-76
2022/03/22 23:18:18;;;;;;;89.90;49.10;;;;;;;0.12;62.65;101551.71;214129;1274;162474;-75
2022/03/22 23:23:22;;;;;;;123.60;60.00;;;;;;;-0.09;62.87;101550.43;213896;1274;140612;-72
2022/03/22 23:28:27;;;;;;;126.90;57.20;;;;;;;-0.15;63.26;101553.73;214932;1274;140267;-67
2022/03/22 23:33:31;;;;;;;105.00;56.20;;;;;;;-0.14;63.60;101552.43;216116;1274;142286;-73
2022/03/22 23:38:36;;;;;;;128.00;58.60;;;;;;;-0.11;63.74;101550.80;216431;1274;140346;-68
2022/03/22 23:43:40;;;;;;;102.70;51.10;;;;;;;-0.09;63.85;101550.29;214442;1274;140700;-67
2022/03/22 23:48:44;;;;;;;92.20;49.50;;;;;;;-0.09;64.27;101550.84;216086;1274;140218;-67